createdAt,value
2023-02-15T00:02:04.104Z,24.20
2023-02-15T00:04:51.033Z,24.37
2023-02-15T00:07:19.858Z,24.70
2023-02-15T00:09:47.894Z,26.52
2023-02-15T00:12:16.233Z,33.67
2023-02-15T00:14:43.832Z,31.70
2023-02-15T00:17:11.624Z,30.15
2023-02-15T00:19:38.979Z,27.23
2023-02-15T00:22:06.523Z,26.55
2023-02-15T00:24:34.151Z,27.48
2023-02-15T00:27:01.528Z,22.80
2023-02-15T00:29:29.104Z,21.33
2023-02-15T00:31:56.809Z,21.27
2023-02-15T00:34:26.745Z,20.00
2023-02-15T00:36:54.256Z,20.80
2023-02-15T00:39:22.290Z,19.30
2023-02-15T00:41:49.728Z,22.75
2023-02-15T00:44:17.212Z,22.92
2023-02-15T00:46:44.949Z,23.25
2023-02-15T00:49:13.101Z,22.80
2023-02-15T00:51:40.632Z,23.48
2023-02-15T00:54:09.029Z,23.05
2023-02-15T00:56:36.493Z,21.35
2023-02-15T00:59:04.720Z,19.90
2023-02-15T01:01:32.482Z,20.75
2023-02-15T01:04:00.064Z,20.08
2023-02-15T01:06:30.656Z,19.55
2023-02-15T01:08:58.430Z,18.52
2023-02-15T01:11:25.826Z,18.75
2023-02-15T01:13:58.154Z,18.87
2023-02-15T01:16:27.856Z,18.70
2023-02-15T01:18:58.393Z,18.65
2023-02-15T01:21:27.070Z,19.67
2023-02-15T01:23:54.762Z,21.25
2023-02-15T01:26:22.121Z,20.62
2023-02-15T01:28:49.855Z,20.73
2023-02-15T01:31:19.917Z,19.73
2023-02-15T01:33:49.779Z,19.75
2023-02-15T01:36:18.337Z,19.45
2023-02-15T01:38:46.401Z,18.70
2023-02-15T01:41:27.223Z,17.73
2023-02-15T01:43:57.456Z,19.33
2023-02-15T01:46:41.944Z,18.85
2023-02-15T01:49:11.021Z,18.73
2023-02-15T01:51:39.292Z,20.35
2023-02-15T01:54:25.523Z,21.90
2023-02-15T01:56:54.121Z,23.30
2023-02-15T01:59:23.169Z,24.10
2023-02-15T02:01:52.477Z,21.45
2023-02-15T02:04:25.978Z,20.67
2023-02-15T02:06:54.438Z,20.20
2023-02-15T02:09:22.084Z,19.42
2023-02-15T02:11:50.731Z,19.67
2023-02-15T02:14:19.197Z,22.98
2023-02-15T02:16:58.532Z,20.27
2023-02-15T02:19:45.005Z,20.77
2023-02-15T02:22:24.312Z,19.70
2023-02-15T02:25:13.035Z,20.80
2023-02-15T02:27:51.037Z,22.62
2023-02-15T02:30:33.365Z,24.50
2023-02-15T02:33:15.914Z,23.77
2023-02-15T02:36:04.173Z,26.33
2023-02-15T02:38:56.812Z,23.12
2023-02-15T02:44:22.897Z,20.27
2023-02-15T02:46:59.793Z,18.15
2023-02-15T02:49:34.950Z,17.52
2023-02-15T02:52:05.585Z,18.02
2023-02-15T02:54:35.729Z,17.87
2023-02-15T02:57:06.770Z,15.93
2023-02-15T02:59:38.934Z,16.60
2023-02-15T03:02:14.011Z,16.75
2023-02-15T03:04:59.322Z,16.52
2023-02-15T03:07:29.763Z,16.05
2023-02-15T03:10:00.151Z,17.45
2023-02-15T03:12:29.181Z,16.55
2023-02-15T03:15:01.683Z,16.70
2023-02-15T03:17:32.463Z,16.25
2023-02-15T03:20:05.489Z,16.30
2023-02-15T03:22:38.365Z,16.42
2023-02-15T03:25:12.701Z,16.05
2023-02-15T03:27:45.386Z,16.12
2023-02-15T03:32:41.057Z,15.93
2023-02-15T03:35:08.805Z,16.25
2023-02-15T03:37:42.998Z,16.35
2023-02-15T03:40:39.524Z,15.77
2023-02-15T03:43:39.784Z,16.85
2023-02-15T03:46:15.359Z,14.52
2023-02-15T03:48:50.544Z,16.10
2023-02-15T03:51:37.173Z,15.63
2023-02-15T03:54:14.386Z,15.50
2023-02-15T03:57:03.050Z,15.38
2023-02-15T03:59:49.105Z,16.52
2023-02-15T04:02:22.599Z,15.57
2023-02-15T04:04:50.599Z,17.62
2023-02-15T04:07:18.037Z,16.37
2023-02-15T04:10:03.610Z,15.43
2023-02-15T04:12:32.086Z,15.35
2023-02-15T04:15:18.142Z,15.95
2023-02-15T04:17:45.854Z,15.07
2023-02-15T04:20:31.726Z,15.55
2023-02-15T04:23:17.873Z,15.57
2023-02-15T04:25:45.249Z,15.10
2023-02-15T04:28:12.916Z,14.50
2023-02-15T04:30:40.299Z,15.27
2023-02-15T04:33:07.650Z,15.02
2023-02-15T04:35:35.314Z,15.60
2023-02-15T04:38:02.793Z,15.50
2023-02-15T04:40:30.221Z,14.93
2023-02-15T04:42:57.835Z,14.63
2023-02-15T04:45:25.244Z,15.63
2023-02-15T04:47:52.669Z,14.82
2023-02-15T04:50:20.380Z,15.82
2023-02-15T04:52:47.907Z,15.32
2023-02-15T04:55:15.438Z,15.23
2023-02-15T04:57:43.116Z,15.98
2023-02-15T05:00:10.926Z,15.77
2023-02-15T05:02:38.710Z,16.55
2023-02-15T05:05:06.754Z,16.48
2023-02-15T05:07:34.116Z,16.50
2023-02-15T05:10:01.466Z,15.80
2023-02-15T05:12:29.124Z,16.02
2023-02-15T05:14:56.470Z,16.52
2023-02-15T05:17:23.809Z,16.60
2023-02-15T05:19:51.516Z,16.33
2023-02-15T05:22:18.929Z,16.87
2023-02-15T05:25:04.693Z,16.02
2023-02-15T05:27:51.054Z,17.70
2023-02-15T05:30:18.725Z,17.15
2023-02-15T05:32:46.542Z,17.85
2023-02-15T05:35:16.093Z,16.00
2023-02-15T05:37:43.564Z,17.33
2023-02-15T05:40:11.743Z,16.83
2023-02-15T05:42:39.209Z,17.98
2023-02-15T05:45:07.365Z,17.20
2023-02-15T05:47:35.280Z,16.92
2023-02-15T05:50:02.707Z,16.37
2023-02-15T05:52:30.190Z,15.48
2023-02-15T05:54:59.028Z,16.27
2023-02-15T05:57:26.474Z,16.35
2023-02-15T05:59:53.886Z,16.40
2023-02-15T06:02:21.632Z,16.48
2023-02-15T06:04:49.402Z,16.90
2023-02-15T06:07:16.790Z,16.25
2023-02-15T06:09:44.156Z,17.25
2023-02-15T06:12:11.816Z,17.42
2023-02-15T06:14:39.180Z,16.05
2023-02-15T06:17:06.597Z,17.12
2023-02-15T06:19:34.244Z,15.93
2023-02-15T06:22:01.640Z,16.90
2023-02-15T06:24:29.079Z,16.85
2023-02-15T06:26:56.817Z,16.77
2023-02-15T06:29:24.262Z,16.65
2023-02-15T06:31:51.639Z,16.58
2023-02-15T06:34:19.474Z,17.20
2023-02-15T06:36:47.098Z,18.00
2023-02-15T06:39:14.594Z,18.60
2023-02-15T06:41:42.527Z,18.30
2023-02-15T06:44:09.954Z,19.08
2023-02-15T06:46:37.470Z,19.27
2023-02-15T06:49:05.107Z,18.23
2023-02-15T06:51:32.498Z,17.70
2023-02-15T06:53:59.855Z,17.75
2023-02-15T06:56:27.566Z,18.10
2023-02-15T06:58:54.982Z,18.00
2023-02-15T07:01:22.512Z,16.37
2023-02-15T07:03:50.663Z,15.80
2023-02-15T07:06:18.117Z,17.85
2023-02-15T07:08:45.601Z,16.83
2023-02-15T07:11:31.757Z,16.58
2023-02-15T07:13:59.239Z,17.62
2023-02-15T07:16:27.003Z,15.02
2023-02-15T07:18:54.485Z,13.93
2023-02-15T07:21:21.891Z,13.93
2023-02-15T07:23:49.530Z,13.60
2023-02-15T07:26:16.880Z,13.40
2023-02-15T07:28:44.312Z,15.73
2023-02-15T07:31:12.071Z,15.30
2023-02-15T07:33:39.711Z,14.80
2023-02-15T07:36:07.635Z,15.85
2023-02-15T07:38:37.490Z,17.08
2023-02-15T07:41:10.128Z,15.40
2023-02-15T07:43:39.681Z,15.48
2023-02-15T07:46:10.842Z,14.70
2023-02-15T07:48:39.724Z,15.63
2023-02-15T07:51:09.182Z,14.95
2023-02-15T07:53:36.905Z,15.50
2023-02-15T07:56:07.268Z,14.85
2023-02-15T07:58:53.383Z,15.43
2023-02-15T08:01:30.591Z,15.55
2023-02-15T08:04:01.223Z,15.65
2023-02-15T08:06:31.139Z,15.63
2023-02-15T08:08:58.897Z,17.40
2023-02-15T08:11:34.545Z,18.23
2023-02-15T08:14:12.353Z,18.37
2023-02-15T08:16:51.010Z,18.65
2023-02-15T08:19:21.509Z,18.90
2023-02-15T08:21:54.517Z,18.77
2023-02-15T08:24:24.063Z,19.50
2023-02-15T08:26:52.593Z,18.92
2023-02-15T08:29:23.429Z,19.12
2023-02-15T08:31:54.356Z,19.52
2023-02-15T08:34:22.266Z,18.67
2023-02-15T08:36:49.635Z,18.48
2023-02-15T08:39:17.699Z,19.37
2023-02-15T08:41:46.802Z,20.50
2023-02-15T08:44:16.309Z,19.70
2023-02-15T08:46:45.446Z,21.05
2023-02-15T08:49:14.755Z,21.17
2023-02-15T08:51:42.670Z,21.35
2023-02-15T08:54:13.597Z,20.80
2023-02-15T08:56:42.500Z,21.85
2023-02-15T08:59:22.058Z,22.20
2023-02-15T09:01:51.472Z,21.27
2023-02-15T09:04:19.546Z,21.90
2023-02-15T09:06:49.238Z,21.02
2023-02-15T09:09:18.225Z,22.90
2023-02-15T09:11:47.916Z,22.98
2023-02-15T09:14:17.567Z,23.87
2023-02-15T09:16:55.387Z,22.92
2023-02-15T09:19:23.976Z,22.52
2023-02-15T09:21:52.393Z,21.25
2023-02-15T09:24:19.973Z,24.23
2023-02-15T09:26:49.088Z,22.92
2023-02-15T09:29:18.030Z,24.15
2023-02-15T09:31:50.931Z,24.63
2023-02-15T09:34:21.443Z,23.05
2023-02-15T09:36:49.569Z,24.80
2023-02-15T09:39:19.765Z,23.20
2023-02-15T09:41:56.327Z,26.30
2023-02-15T09:44:26.562Z,26.33
2023-02-15T09:47:18.087Z,24.50
2023-02-15T09:50:24.310Z,24.23
2023-02-15T09:53:00.709Z,23.65
2023-02-15T09:55:52.439Z,24.92
2023-02-15T09:58:22.938Z,25.33
2023-02-15T10:01:11.248Z,25.08
2023-02-15T10:03:47.989Z,25.52
2023-02-15T10:06:45.311Z,24.92
2023-02-15T10:09:31.786Z,24.80
2023-02-15T10:12:44.087Z,24.70
2023-02-15T10:15:20.156Z,21.83
2023-02-15T10:18:01.582Z,21.12
2023-02-15T10:20:31.906Z,19.92
2023-02-15T10:23:04.280Z,20.83
2023-02-15T10:26:03.168Z,20.50
2023-02-15T10:28:43.450Z,21.73
2023-02-15T10:31:24.533Z,22.87
2023-02-15T10:34:15.455Z,21.85
2023-02-15T10:37:27.717Z,21.60
2023-02-15T10:40:21.663Z,22.77
2023-02-15T10:42:55.395Z,20.52
2023-02-15T10:45:22.860Z,23.12
2023-02-15T10:47:56.195Z,25.23
2023-02-15T10:50:51.722Z,26.60
2023-02-15T10:53:40.440Z,24.37
2023-02-15T10:56:16.651Z,26.27
2023-02-15T10:58:51.839Z,32.60
2023-02-15T11:01:34.246Z,27.40
2023-02-15T11:04:39.753Z,27.37
2023-02-15T11:07:17.658Z,24.98
2023-02-15T11:09:50.040Z,24.67
2023-02-15T11:12:21.489Z,23.55
2023-02-15T11:14:54.099Z,22.17
2023-02-15T11:20:20.137Z,23.15
2023-02-15T11:22:51.875Z,22.70
2023-02-15T11:25:33.492Z,20.90
2023-02-15T11:28:05.381Z,21.05
2023-02-15T11:30:47.628Z,18.42
2023-02-15T11:33:23.402Z,20.02
2023-02-15T11:36:18.157Z,21.40
2023-02-15T11:38:47.307Z,18.77
2023-02-15T11:41:20.108Z,18.12
2023-02-15T11:43:54.972Z,28.35
2023-02-15T11:46:22.901Z,19.40
2023-02-15T11:48:50.785Z,31.65
2023-02-15T11:51:22.090Z,32.13
2023-02-15T11:53:52.706Z,23.48
2023-02-15T11:56:23.530Z,20.00
2023-02-15T11:59:10.320Z,19.58
2023-02-15T12:01:42.320Z,19.23
2023-02-15T12:04:40.318Z,19.42
2023-02-15T12:07:18.770Z,22.20
2023-02-15T12:09:57.571Z,19.90
2023-02-15T12:12:29.316Z,22.75
2023-02-15T12:15:01.862Z,19.83
2023-02-15T12:17:32.018Z,18.77
2023-02-15T12:20:26.362Z,19.15
2023-02-15T12:23:04.643Z,20.08
2023-02-15T12:25:48.666Z,20.50
2023-02-15T12:28:34.117Z,20.08
2023-02-15T12:31:05.125Z,19.02
2023-02-15T12:33:41.978Z,27.65
2023-02-15T12:36:45.538Z,33.42
2023-02-15T12:39:26.658Z,26.62
2023-02-15T12:41:57.086Z,26.15
2023-02-15T12:44:27.791Z,23.45
2023-02-15T12:47:10.719Z,20.15
2023-02-15T12:49:38.950Z,19.08
2023-02-15T12:52:25.072Z,20.12
2023-02-15T12:54:53.007Z,17.87
2023-02-15T12:57:27.757Z,19.62
2023-02-15T13:00:01.615Z,21.30
2023-02-15T13:02:41.879Z,19.40
2023-02-15T13:05:20.813Z,19.33
2023-02-15T13:07:55.810Z,20.05
2023-02-15T13:10:27.225Z,21.35
2023-02-15T13:12:57.543Z,20.08
2023-02-15T13:15:33.645Z,20.48
2023-02-15T13:18:05.696Z,17.62
2023-02-15T13:20:35.448Z,19.62
2023-02-15T13:23:14.859Z,18.58
2023-02-15T13:25:51.077Z,17.58
2023-02-15T13:28:21.685Z,18.45
2023-02-15T13:30:50.274Z,17.80
2023-02-15T13:33:27.347Z,18.08
2023-02-15T13:36:10.700Z,18.52
2023-02-15T13:38:59.812Z,18.10
2023-02-15T13:41:50.104Z,16.92
2023-02-15T13:44:42.055Z,16.00
2023-02-15T13:47:33.470Z,16.90
2023-02-15T13:50:28.458Z,18.55
2023-02-15T13:53:08.610Z,18.25
2023-02-15T13:55:39.274Z,18.40
2023-02-15T13:58:25.582Z,18.48
2023-02-15T14:01:16.787Z,17.60
2023-02-15T14:03:57.262Z,17.20
2023-02-15T14:06:47.827Z,19.30
2023-02-15T14:09:37.820Z,19.87
2023-02-15T14:12:24.633Z,19.80
2023-02-15T14:15:16.696Z,19.00
2023-02-15T14:18:05.308Z,18.73
2023-02-15T14:20:58.196Z,19.92
2023-02-15T14:23:43.277Z,20.30
2023-02-15T14:26:32.915Z,19.23
2023-02-15T14:29:22.225Z,19.65
2023-02-15T14:31:59.715Z,19.33
2023-02-15T14:34:42.517Z,19.98
2023-02-15T14:37:13.089Z,21.60
2023-02-15T14:40:22.177Z,21.62
2023-02-15T14:43:09.745Z,21.02
2023-02-15T14:45:50.583Z,19.92
2023-02-15T14:48:46.417Z,19.48
2023-02-15T14:51:52.626Z,20.88
2023-02-15T14:54:23.158Z,20.45
2023-02-15T14:57:03.202Z,20.42
2023-02-15T14:59:59.791Z,19.60
2023-02-15T15:02:41.978Z,19.80
2023-02-15T15:07:54.714Z,20.02
2023-02-15T15:10:22.278Z,19.05
2023-02-15T15:12:54.053Z,21.10
2023-02-15T15:15:27.819Z,20.25
2023-02-15T15:17:56.833Z,19.65
2023-02-15T15:20:28.198Z,20.35
2023-02-15T15:23:15.202Z,20.62
2023-02-15T15:25:54.806Z,19.75
2023-02-15T15:28:34.665Z,20.12
2023-02-15T15:31:21.570Z,17.33
2023-02-15T15:34:24.803Z,18.75
2023-02-15T15:37:10.832Z,19.40
2023-02-15T15:42:49.043Z,20.75
2023-02-15T15:45:44.751Z,19.83
2023-02-15T15:48:34.303Z,20.48
2023-02-15T15:51:12.665Z,21.40
2023-02-15T15:53:43.645Z,19.67
2023-02-15T15:56:18.066Z,20.48
2023-02-15T15:58:50.318Z,19.85
2023-02-15T16:01:18.680Z,20.33
2023-02-15T16:03:51.358Z,19.23
2023-02-15T16:06:48.221Z,19.77
2023-02-15T16:09:25.519Z,18.77
2023-02-15T16:12:02.615Z,20.12
2023-02-15T16:14:33.562Z,25.15
2023-02-15T16:17:03.670Z,32.80
2023-02-15T16:19:38.545Z,38.30
2023-02-15T16:22:14.038Z,46.70
2023-02-15T16:27:24.124Z,33.28
2023-02-15T16:29:55.202Z,33.08
2023-02-15T16:32:27.305Z,34.30
2023-02-15T16:35:00.258Z,39.28
2023-02-15T16:37:32.815Z,40.45
2023-02-15T16:40:00.908Z,44.10
2023-02-15T16:42:29.080Z,47.83
2023-02-15T16:45:14.085Z,60.92
2023-02-15T16:47:45.524Z,53.03
2023-02-15T16:50:21.998Z,49.50
2023-02-15T16:52:50.517Z,42.28
2023-02-15T16:55:26.904Z,38.60
2023-02-15T16:58:01.321Z,35.75
2023-02-15T17:00:32.528Z,34.42
2023-02-15T17:03:03.261Z,35.65
2023-02-15T17:05:45.669Z,36.30
2023-02-15T17:10:47.682Z,33.08
2023-02-15T17:13:18.810Z,33.95
2023-02-15T17:16:01.695Z,31.60
2023-02-15T17:18:34.805Z,31.10
2023-02-15T17:21:10.673Z,31.37
2023-02-15T17:23:43.758Z,32.22
2023-02-15T17:26:25.719Z,32.42
2023-02-15T17:28:57.190Z,32.17
2023-02-15T17:31:29.541Z,32.03
2023-02-15T17:33:59.258Z,31.00
2023-02-15T17:36:30.532Z,32.05
2023-02-15T17:38:58.204Z,32.37
2023-02-15T17:41:26.913Z,32.78
2023-02-15T17:43:54.315Z,33.50
2023-02-15T17:46:24.767Z,35.50
2023-02-15T17:48:54.906Z,34.90
2023-02-15T17:51:22.912Z,33.92
2023-02-15T17:54:09.138Z,34.67
2023-02-15T17:56:38.347Z,34.05
2023-02-15T17:59:10.248Z,36.17
2023-02-15T18:02:03.040Z,40.28
2023-02-15T18:07:36.750Z,50.12
2023-02-15T18:10:34.806Z,52.22
2023-02-15T18:13:02.266Z,52.42
2023-02-15T18:15:30.098Z,59.97
2023-02-15T18:17:57.532Z,66.57
2023-02-15T18:20:34.753Z,79.22
2023-02-15T18:23:02.845Z,76.57
2023-02-15T18:25:30.271Z,73.85
2023-02-15T18:27:57.663Z,68.85
2023-02-15T18:30:28.262Z,64.30
2023-02-15T18:32:57.280Z,59.40
2023-02-15T18:35:27.181Z,55.72
2023-02-15T18:37:54.844Z,55.70
2023-02-15T18:40:25.640Z,66.40
2023-02-15T18:42:53.647Z,68.40
2023-02-15T18:45:28.488Z,97.18
2023-02-15T18:47:56.195Z,97.68
2023-02-15T18:50:25.031Z,80.12
2023-02-15T18:52:52.387Z,58.55
2023-02-15T18:55:25.901Z,51.37
2023-02-15T18:57:54.937Z,53.28
2023-02-15T19:00:25.269Z,45.17
2023-02-15T19:02:53.929Z,48.38
2023-02-15T19:05:22.507Z,47.08
2023-02-15T19:07:50.805Z,53.53
2023-02-15T19:10:23.261Z,50.90
2023-02-15T19:12:52.454Z,44.88
2023-02-15T19:15:25.470Z,45.85
2023-02-15T19:17:53.829Z,46.17
2023-02-15T19:20:27.123Z,39.67
2023-02-15T19:22:56.176Z,38.72
2023-02-15T19:25:32.061Z,36.92
2023-02-15T19:28:00.242Z,34.35
2023-02-15T19:30:30.517Z,34.53
2023-02-15T19:32:59.429Z,35.92
2023-02-15T19:35:30.087Z,35.05
2023-02-15T19:37:59.902Z,32.28
2023-02-15T19:40:30.771Z,31.62
2023-02-15T19:42:58.379Z,33.15
2023-02-15T19:45:29.072Z,31.02
2023-02-15T19:47:57.390Z,33.10
2023-02-15T19:50:27.024Z,33.08
2023-02-15T19:52:54.728Z,33.15
2023-02-15T19:55:24.298Z,34.70
2023-02-15T19:57:53.381Z,34.72
2023-02-15T20:00:26.356Z,35.20
2023-02-15T20:02:54.348Z,34.80
2023-02-15T20:05:22.378Z,33.25
2023-02-15T20:07:52.012Z,35.35
2023-02-15T20:10:25.028Z,34.33
2023-02-15T20:12:52.754Z,33.85
2023-02-15T20:15:23.878Z,33.90
2023-02-15T20:17:51.361Z,31.15
2023-02-15T20:20:19.956Z,32.00
2023-02-15T20:22:49.497Z,31.77
2023-02-15T20:25:21.109Z,32.45
2023-02-15T20:27:48.750Z,32.03
2023-02-15T20:30:21.911Z,36.10
2023-02-15T20:32:50.075Z,35.80
2023-02-15T20:35:22.732Z,38.92
2023-02-15T20:37:55.647Z,38.90
2023-02-15T20:40:24.408Z,35.83
2023-02-15T20:42:52.178Z,36.72
2023-02-15T20:45:22.687Z,37.58
2023-02-15T20:47:51.173Z,37.35
2023-02-15T20:50:24.791Z,36.08
2023-02-15T20:52:54.063Z,37.33
2023-02-15T20:55:26.841Z,37.95
2023-02-15T21:00:24.290Z,35.70
2023-02-15T21:02:54.645Z,34.45
2023-02-15T21:05:30.742Z,33.75
2023-02-15T21:07:59.627Z,31.80
2023-02-15T21:10:32.240Z,31.85
2023-02-15T21:13:00.258Z,31.00
2023-02-15T21:15:30.852Z,36.28
2023-02-15T21:18:00.404Z,35.00
2023-02-15T21:20:29.652Z,39.35
2023-02-15T21:22:59.671Z,44.38
2023-02-15T21:25:33.402Z,49.25
2023-02-15T21:28:01.122Z,46.30
2023-02-15T21:30:28.855Z,48.47
2023-02-15T21:32:56.236Z,51.30
2023-02-15T21:35:24.107Z,49.05
2023-02-15T21:37:52.775Z,48.83
2023-02-15T21:40:27.282Z,49.00
2023-02-15T21:43:13.735Z,52.25
2023-02-15T21:46:00.017Z,46.72
2023-02-15T21:48:28.157Z,47.95
2023-02-15T21:51:14.331Z,41.35
2023-02-15T21:53:45.807Z,39.08
2023-02-15T21:56:19.099Z,35.17
2023-02-15T21:58:47.328Z,32.28
2023-02-15T22:01:22.283Z,32.05
2023-02-15T22:03:50.563Z,31.45
2023-02-15T22:06:18.394Z,33.30
2023-02-15T22:08:47.916Z,32.58
2023-02-15T22:11:18.202Z,32.42
2023-02-15T22:13:47.341Z,31.77
2023-02-15T22:16:17.533Z,30.95
2023-02-15T22:18:46.084Z,32.47
2023-02-15T22:21:13.517Z,31.02
2023-02-15T22:23:40.858Z,30.95
2023-02-15T22:26:13.162Z,31.45
2023-02-15T22:28:41.174Z,31.55
2023-02-15T22:31:14.874Z,30.55
2023-02-15T22:33:44.710Z,30.35
2023-02-15T22:36:27.252Z,29.73
2023-02-15T22:38:55.291Z,31.50
2023-02-15T22:41:25.856Z,29.80
2023-02-15T22:43:53.230Z,27.00
2023-02-15T22:46:23.281Z,27.52
2023-02-15T22:48:51.867Z,26.80
2023-02-15T22:51:21.934Z,27.87
2023-02-15T22:53:51.747Z,26.80
2023-02-15T22:56:26.695Z,26.85
2023-02-15T22:59:01.349Z,27.58
2023-02-15T23:01:34.447Z,25.88
2023-02-15T23:04:03.786Z,27.40
2023-02-15T23:06:32.500Z,27.17
2023-02-15T23:09:00.847Z,29.23
2023-02-15T23:11:28.557Z,32.15
2023-02-15T23:13:56.266Z,32.25
2023-02-15T23:16:23.763Z,35.17
2023-02-15T23:18:51.440Z,37.75
2023-02-15T23:21:33.865Z,40.08
2023-02-15T23:24:22.474Z,38.00
2023-02-15T23:26:50.867Z,40.03
2023-02-15T23:29:20.943Z,42.53
2023-02-15T23:31:50.364Z,41.67
2023-02-15T23:34:31.617Z,40.50
2023-02-15T23:36:59.031Z,41.17
2023-02-15T23:39:46.201Z,39.90
2023-02-15T23:42:20.119Z,36.28
2023-02-15T23:44:48.720Z,31.85
2023-02-15T23:47:45.291Z,31.23
2023-02-15T23:50:23.938Z,34.00
2023-02-15T23:52:51.704Z,34.72
2023-02-15T23:55:20.208Z,31.98
2023-02-15T23:57:48.092Z,30.83
